createdAt,value
2019-03-31T00:00:39.705Z,5.90
2019-03-31T00:03:08.254Z,5.90
2019-03-31T00:05:37.428Z,5.80
2019-03-31T00:08:06.190Z,5.90
2019-03-31T00:10:34.833Z,6.00
2019-03-31T00:15:31.671Z,5.60
2019-03-31T00:18:00.249Z,5.80
2019-03-31T00:20:28.801Z,5.80
2019-03-31T00:30:22.065Z,6.10
2019-03-31T00:32:50.641Z,5.50
2019-03-31T00:35:19.188Z,5.60
2019-03-31T00:37:47.836Z,5.60
2019-03-31T00:40:16.448Z,5.50
2019-03-31T00:45:13.388Z,5.90
2019-03-31T00:47:41.969Z,5.90
2019-03-31T00:50:10.589Z,5.30
2019-03-31T00:52:39.162Z,5.20
2019-03-31T00:55:07.850Z,5.20
2019-03-31T01:02:35.229Z,5.20
2019-03-31T01:05:06.117Z,5.40
2019-03-31T01:10:05.084Z,5.10
2019-03-31T01:12:33.792Z,5.00
2019-03-31T01:15:04.326Z,5.00
2019-03-31T01:17:33.540Z,4.90
2019-03-31T01:20:02.293Z,4.80
2019-03-31T01:22:30.941Z,4.80
2019-03-31T01:24:59.552Z,4.90
2019-03-31T01:27:28.297Z,4.90
2019-03-31T01:29:56.849Z,4.80
2019-03-31T01:32:25.999Z,4.90
2019-03-31T01:37:23.037Z,4.70
2019-03-31T01:39:51.963Z,4.70
2019-03-31T01:42:20.583Z,4.60
2019-03-31T01:44:49.288Z,4.60
2019-03-31T01:47:18.116Z,4.50
2019-03-31T01:49:46.758Z,4.50
2019-03-31T01:52:15.315Z,4.60
2019-03-31T01:54:43.894Z,4.60
2019-03-31T01:57:12.447Z,4.60
2019-03-31T02:02:10.965Z,4.50
2019-03-31T02:04:39.545Z,4.40
2019-03-31T02:14:32.954Z,4.20
2019-03-31T02:17:01.493Z,4.20
2019-03-31T02:19:30.133Z,4.20
2019-03-31T02:24:26.942Z,4.20
2019-03-31T02:29:23.734Z,3.90
2019-03-31T02:31:52.386Z,3.90
2019-03-31T02:34:21.002Z,3.90
2019-03-31T02:36:49.575Z,3.80
2019-03-31T02:39:18.139Z,3.80
2019-03-31T02:41:46.690Z,3.80
2019-03-31T02:46:43.488Z,3.70
2019-03-31T02:49:12.034Z,3.60
2019-03-31T02:51:40.885Z,3.60
2019-03-31T02:54:09.552Z,3.70
2019-03-31T02:56:39.878Z,3.70
2019-03-31T02:59:08.694Z,3.70
2019-03-31T03:01:40.310Z,3.70
2019-03-31T03:09:07.778Z,3.40
2019-03-31T03:14:06.675Z,3.50
2019-03-31T03:19:03.545Z,3.60
2019-03-31T03:21:32.117Z,3.70
2019-03-31T03:24:00.675Z,3.70
2019-03-31T03:26:29.256Z,3.70
2019-03-31T03:33:54.297Z,3.50
2019-03-31T03:36:22.848Z,3.60
2019-03-31T03:38:51.490Z,3.60
2019-03-31T03:51:15.163Z,3.40
2019-03-31T03:53:43.778Z,3.50
2019-03-31T03:56:12.356Z,3.40
2019-03-31T03:58:40.974Z,3.50
2019-03-31T04:01:11.330Z,3.50
2019-03-31T04:03:39.880Z,3.40
2019-03-31T04:11:13.414Z,3.10
2019-03-31T04:13:42.036Z,3.10
2019-03-31T04:16:10.662Z,3.10
2019-03-31T04:18:39.220Z,3.10
2019-03-31T04:21:07.860Z,3.20
2019-03-31T04:26:04.644Z,3.00
2019-03-31T04:28:33.223Z,3.10
2019-03-31T04:31:01.922Z,3.00
2019-03-31T04:33:48.434Z,3.00
2019-03-31T04:36:00.675Z,2.90
2019-03-31T04:38:29.254Z,2.80
2019-03-31T04:53:21.932Z,3.10
2019-03-31T05:03:15.188Z,2.60
2019-03-31T05:05:43.757Z,2.80
2019-03-31T05:35:27.107Z,2.80
2019-03-31T05:40:23.848Z,2.80
2019-03-31T05:50:17.137Z,2.70
2019-03-31T05:57:42.150Z,2.90
2019-03-31T06:12:33.401Z,3.30
2019-03-31T06:15:01.955Z,3.10
2019-03-31T06:17:30.533Z,3.10
2019-03-31T06:24:55.547Z,3.50
2019-03-31T06:27:24.121Z,3.50
2019-03-31T06:29:52.669Z,3.70
2019-03-31T06:32:21.399Z,3.90
2019-03-31T06:37:18.119Z,4.00
2019-03-31T06:42:14.923Z,4.10
2019-03-31T06:44:43.479Z,4.30
2019-03-31T06:47:12.030Z,4.40
2019-03-31T06:49:40.695Z,4.70
2019-03-31T06:52:09.249Z,5.10
2019-03-31T06:54:37.824Z,4.80
2019-03-31T06:57:06.382Z,4.90
2019-03-31T06:59:34.944Z,5.20
2019-03-31T07:02:03.667Z,5.40
2019-03-31T07:04:32.324Z,5.40
2019-03-31T07:07:00.878Z,5.70
2019-03-31T07:14:25.951Z,6.00
2019-03-31T07:16:54.511Z,6.20
2019-03-31T07:19:23.083Z,6.10
2019-03-31T07:21:51.632Z,6.20
2019-03-31T07:26:48.433Z,6.70
2019-03-31T07:29:17.482Z,6.70
2019-03-31T07:31:46.041Z,6.90
2019-03-31T07:34:14.621Z,7.10
2019-03-31T07:36:43.164Z,6.90
2019-03-31T07:39:12.049Z,7.30
2019-03-31T07:44:09.113Z,7.50
2019-03-31T07:49:06.072Z,7.80
2019-03-31T07:51:37.451Z,8.20
2019-03-31T07:54:05.004Z,7.90
2019-03-31T07:56:33.817Z,8.20
2019-03-31T07:59:02.408Z,8.40
2019-03-31T08:01:30.946Z,9.00
2019-03-31T08:03:59.521Z,8.40
2019-03-31T08:06:29.614Z,8.80
2019-03-31T08:13:57.413Z,8.90
2019-03-31T08:16:25.965Z,9.10
2019-03-31T08:18:54.560Z,9.40
2019-03-31T08:21:23.106Z,9.70
2019-03-31T08:23:51.682Z,9.40
2019-03-31T08:26:20.234Z,9.80
2019-03-31T08:28:50.220Z,10.40
2019-03-31T08:31:21.710Z,9.90
2019-03-31T08:33:50.288Z,9.90
2019-03-31T08:36:18.843Z,10.00
2019-03-31T08:38:47.429Z,10.30
2019-03-31T08:41:15.986Z,10.30
2019-03-31T08:43:44.573Z,10.10
2019-03-31T08:46:13.117Z,10.50
2019-03-31T08:48:41.706Z,10.60
2019-03-31T08:51:10.253Z,10.50
2019-03-31T08:53:38.846Z,10.80
2019-03-31T08:56:08.891Z,11.50
2019-03-31T08:58:37.580Z,11.20
2019-03-31T09:06:06.926Z,11.80
2019-03-31T09:08:35.468Z,11.90
2019-03-31T09:11:04.130Z,12.60
2019-03-31T09:13:34.225Z,11.80
2019-03-31T09:18:32.803Z,12.30
2019-03-31T09:21:01.484Z,12.50
2019-03-31T09:23:30.038Z,12.30
2019-03-31T09:25:58.711Z,12.60
2019-03-31T09:28:27.572Z,12.70
2019-03-31T09:30:56.183Z,12.80
2019-03-31T09:33:24.733Z,12.70
2019-03-31T09:35:53.308Z,13.20
2019-03-31T09:38:21.866Z,13.30
2019-03-31T09:40:50.527Z,13.10
2019-03-31T09:45:47.322Z,13.60
2019-03-31T09:48:15.878Z,13.70
2019-03-31T09:50:44.458Z,13.70
2019-03-31T09:53:13.106Z,14.00
2019-03-31T09:55:41.677Z,14.20
2019-03-31T09:58:10.224Z,13.90
2019-03-31T10:00:47.327Z,14.10
2019-03-31T10:03:16.521Z,14.30
2019-03-31T10:05:48.025Z,14.40
2019-03-31T10:08:15.584Z,14.70
2019-03-31T10:10:44.352Z,14.90
2019-03-31T10:13:12.941Z,14.70
2019-03-31T10:15:41.602Z,14.90
2019-03-31T10:18:11.045Z,15.20
2019-03-31T10:20:39.693Z,15.40
2019-03-31T10:23:08.246Z,15.60
2019-03-31T10:25:36.821Z,15.50
2019-03-31T10:28:05.390Z,15.50
2019-03-31T10:30:48.985Z,15.70
2019-03-31T10:33:09.184Z,15.60
2019-03-31T10:35:37.941Z,15.70
2019-03-31T10:38:07.246Z,15.80
2019-03-31T10:40:35.908Z,16.10
2019-03-31T10:43:04.598Z,16.10
2019-03-31T10:45:33.186Z,16.10
2019-03-31T10:48:19.170Z,16.30
2019-03-31T10:50:35.328Z,16.20
2019-03-31T10:53:03.963Z,16.30
2019-03-31T10:55:32.600Z,16.30
2019-03-31T10:58:01.171Z,16.40
2019-03-31T11:00:37.697Z,16.90
2019-03-31T11:03:07.694Z,16.60
2019-03-31T11:05:36.922Z,16.80
2019-03-31T11:08:05.718Z,16.70
2019-03-31T11:10:34.845Z,16.90
2019-03-31T11:13:03.770Z,16.90
2019-03-31T11:20:28.909Z,17.30
2019-03-31T11:23:09.273Z,17.30
2019-03-31T11:25:37.854Z,17.50
2019-03-31T11:30:36.706Z,17.60
2019-03-31T11:33:07.695Z,17.40
2019-03-31T11:35:42.277Z,17.40
2019-03-31T11:40:39.098Z,17.60
2019-03-31T11:43:07.726Z,17.80
2019-03-31T11:45:36.339Z,18.10
2019-03-31T11:48:05.017Z,17.50
2019-03-31T11:50:33.656Z,17.70
2019-03-31T11:55:30.959Z,18.10
2019-03-31T11:58:01.092Z,18.10
2019-03-31T12:00:32.617Z,17.50
2019-03-31T12:08:18.896Z,17.60
2019-03-31T12:10:50.650Z,17.90
2019-03-31T12:13:19.235Z,18.10
2019-03-31T12:15:50.952Z,17.70
2019-03-31T12:18:19.635Z,18.00
2019-03-31T12:23:16.442Z,18.40
2019-03-31T12:25:45.027Z,17.70
2019-03-31T12:28:17.560Z,17.90
2019-03-31T12:30:46.150Z,17.90
2019-03-31T12:33:14.769Z,17.90
2019-03-31T12:35:43.354Z,18.10
2019-03-31T12:40:41.210Z,17.90
2019-03-31T12:43:09.798Z,18.10
2019-03-31T12:45:38.425Z,18.30
2019-03-31T12:48:07.145Z,17.80
2019-03-31T12:50:35.696Z,18.10
2019-03-31T12:53:04.618Z,18.30
2019-03-31T12:55:33.161Z,17.80
2019-03-31T12:58:01.736Z,18.60
2019-03-31T13:00:30.290Z,18.30
2019-03-31T13:02:58.868Z,18.30
2019-03-31T13:05:27.412Z,18.30
2019-03-31T13:07:56.928Z,18.50
2019-03-31T13:10:25.662Z,18.50
2019-03-31T13:12:54.253Z,17.90
2019-03-31T13:15:22.788Z,18.00
2019-03-31T13:17:51.546Z,18.10
2019-03-31T13:20:20.167Z,17.80
2019-03-31T13:22:48.814Z,18.00
2019-03-31T13:25:17.370Z,17.40
2019-03-31T13:27:45.948Z,17.60
2019-03-31T13:30:15.043Z,17.50
2019-03-31T13:32:43.900Z,17.50
2019-03-31T13:35:12.518Z,17.60
2019-03-31T13:37:41.098Z,17.00
2019-03-31T13:40:09.792Z,16.90
2019-03-31T13:42:38.373Z,17.10
2019-03-31T13:45:08.061Z,17.00
2019-03-31T13:47:36.651Z,16.90
2019-03-31T13:50:07.346Z,17.00
2019-03-31T13:52:37.542Z,17.40
2019-03-31T13:55:07.702Z,17.30
2019-03-31T13:57:44.173Z,17.30
2019-03-31T14:00:09.476Z,17.50
2019-03-31T14:02:40.658Z,17.60
2019-03-31T14:05:13.775Z,17.90
2019-03-31T14:07:43.560Z,17.70
2019-03-31T14:10:12.477Z,17.70
2019-03-31T14:12:43.938Z,17.90
2019-03-31T14:15:19.539Z,18.10
2019-03-31T14:17:44.342Z,17.90
2019-03-31T14:20:13.159Z,18.30
2019-03-31T14:22:41.739Z,17.90
2019-03-31T14:25:10.440Z,18.00
2019-03-31T14:27:41.763Z,18.20
2019-03-31T14:30:13.194Z,18.00
2019-03-31T14:32:43.418Z,18.40
2019-03-31T14:35:15.084Z,18.60
2019-03-31T14:40:16.425Z,18.40
2019-03-31T14:42:45.084Z,18.40
2019-03-31T14:50:17.264Z,18.40
2019-03-31T14:52:48.751Z,18.00
2019-03-31T14:55:24.513Z,18.40
2019-03-31T15:00:21.329Z,18.00
2019-03-31T15:02:49.914Z,18.30
2019-03-31T15:05:18.613Z,18.30
2019-03-31T15:07:47.194Z,17.50
2019-03-31T15:10:17.113Z,17.60
2019-03-31T15:12:46.670Z,17.40
2019-03-31T15:15:15.265Z,17.80
2019-03-31T15:20:12.434Z,17.60
2019-03-31T15:22:42.510Z,17.50
2019-03-31T15:25:11.221Z,17.40
2019-03-31T15:27:39.805Z,16.90
2019-03-31T15:30:08.990Z,17.40
2019-03-31T15:32:37.561Z,16.80
2019-03-31T15:35:08.618Z,17.50
2019-03-31T15:37:37.138Z,16.90
2019-03-31T15:40:07.140Z,16.90
2019-03-31T15:42:35.787Z,17.00
2019-03-31T15:47:33.562Z,17.10
2019-03-31T15:50:02.118Z,17.90
2019-03-31T15:52:30.693Z,17.40
2019-03-31T15:54:59.241Z,17.60
2019-03-31T15:57:30.278Z,17.30
2019-03-31T15:59:58.838Z,17.60
2019-03-31T16:02:29.134Z,17.50
2019-03-31T16:04:57.680Z,17.20
2019-03-31T16:07:26.270Z,17.20
2019-03-31T16:09:54.823Z,17.50
2019-03-31T16:12:23.409Z,17.90
2019-03-31T16:14:51.957Z,17.70
2019-03-31T16:17:20.537Z,17.20
2019-03-31T16:19:49.093Z,17.30
2019-03-31T16:22:17.668Z,17.50
2019-03-31T16:24:47.866Z,17.60
2019-03-31T16:27:16.450Z,17.60
2019-03-31T16:29:44.999Z,17.50
2019-03-31T16:32:13.652Z,17.60
2019-03-31T16:34:42.201Z,17.20
2019-03-31T16:37:10.818Z,17.20
2019-03-31T16:39:39.401Z,17.50
2019-03-31T16:42:07.954Z,17.10
2019-03-31T16:44:36.538Z,17.20
2019-03-31T16:49:33.408Z,16.80
2019-03-31T16:52:01.960Z,17.60
2019-03-31T16:54:30.613Z,16.80
2019-03-31T16:56:59.165Z,17.00
2019-03-31T16:59:27.818Z,16.50
2019-03-31T17:01:56.366Z,16.50
2019-03-31T17:06:53.166Z,15.80
2019-03-31T17:09:21.744Z,15.80
2019-03-31T17:11:50.292Z,15.50
2019-03-31T17:14:18.873Z,15.50
2019-03-31T17:16:47.435Z,15.80
2019-03-31T17:19:16.184Z,15.90
2019-03-31T17:21:44.744Z,15.10
2019-03-31T17:24:13.397Z,15.00
2019-03-31T17:26:41.950Z,15.00
2019-03-31T17:29:10.538Z,15.20
2019-03-31T17:31:39.160Z,15.10
2019-03-31T17:34:07.746Z,14.70
2019-03-31T17:36:36.294Z,14.70
2019-03-31T17:39:07.094Z,14.90
2019-03-31T17:41:35.701Z,14.40
2019-03-31T17:44:04.517Z,14.90
2019-03-31T17:46:33.069Z,14.50
2019-03-31T17:49:01.650Z,14.70
2019-03-31T17:51:30.202Z,14.30
2019-03-31T17:53:58.783Z,14.50
2019-03-31T17:56:27.328Z,14.40
2019-03-31T18:01:24.197Z,14.20
2019-03-31T18:03:52.844Z,14.00
2019-03-31T18:06:21.401Z,13.50
2019-03-31T18:08:49.986Z,13.90
2019-03-31T18:11:18.615Z,13.70
2019-03-31T18:13:47.253Z,13.90
2019-03-31T18:18:44.029Z,13.40
2019-03-31T18:21:12.600Z,13.60
2019-03-31T18:23:41.159Z,13.10
2019-03-31T18:26:09.804Z,13.30
2019-03-31T18:28:38.349Z,13.10
2019-03-31T18:31:06.927Z,12.90
2019-03-31T18:33:35.474Z,12.90
2019-03-31T18:36:04.432Z,13.00
2019-03-31T18:38:32.982Z,12.80
2019-03-31T18:41:03.654Z,12.70
2019-03-31T18:43:31.752Z,12.20
2019-03-31T18:46:00.342Z,12.50
2019-03-31T18:48:28.885Z,12.40
2019-03-31T18:50:57.469Z,12.50
2019-03-31T18:53:36.749Z,12.40
2019-03-31T18:56:23.169Z,12.00
2019-03-31T18:58:59.540Z,12.50
2019-03-31T19:01:46.221Z,12.20
2019-03-31T19:04:28.697Z,12.30
2019-03-31T19:07:17.070Z,12.20
2019-03-31T19:12:33.738Z,12.00
2019-03-31T19:15:10.208Z,12.20
2019-03-31T19:17:52.510Z,12.10
2019-03-31T19:20:28.448Z,12.50
2019-03-31T19:25:39.924Z,12.30
2019-03-31T19:30:46.347Z,12.30
2019-03-31T19:33:25.587Z,12.30
2019-03-31T19:36:04.582Z,12.60
2019-03-31T19:38:37.299Z,12.40
2019-03-31T19:41:13.034Z,12.00
2019-03-31T19:43:59.870Z,12.20
2019-03-31T19:46:30.092Z,12.40
2019-03-31T19:49:16.807Z,12.40
2019-03-31T19:51:51.098Z,12.30
2019-03-31T19:54:33.468Z,12.10
2019-03-31T19:57:03.703Z,12.10
2019-03-31T19:59:49.247Z,11.90
2019-03-31T20:02:19.470Z,12.00
2019-03-31T20:07:31.776Z,12.30
2019-03-31T20:10:18.494Z,11.90
2019-03-31T20:15:42.535Z,11.70
2019-03-31T20:18:18.569Z,12.00
2019-03-31T20:23:39.653Z,12.30
2019-03-31T20:26:18.978Z,11.80
2019-03-31T20:34:04.223Z,11.70
2019-03-31T20:36:37.448Z,11.30
2019-03-31T20:39:10.081Z,11.70
2019-03-31T20:41:46.386Z,11.50
2019-03-31T20:44:14.937Z,11.50
2019-03-31T20:46:45.197Z,11.40
2019-03-31T20:49:13.756Z,11.20
2019-03-31T20:51:42.333Z,11.10
2019-03-31T20:54:10.882Z,11.50
2019-03-31T20:56:39.462Z,11.20
2019-03-31T20:59:08.024Z,11.20
2019-03-31T21:01:36.634Z,11.10
2019-03-31T21:04:05.222Z,11.50
2019-03-31T21:06:33.769Z,11.00
2019-03-31T21:09:02.426Z,11.40
2019-03-31T21:11:30.982Z,11.10
2019-03-31T21:13:59.571Z,10.80
2019-03-31T21:16:28.189Z,10.90
2019-03-31T21:18:56.697Z,11.00
2019-03-31T21:21:25.258Z,11.00
2019-03-31T21:23:53.837Z,10.80
2019-03-31T21:26:22.394Z,11.30
2019-03-31T21:28:50.973Z,11.20
2019-03-31T21:36:16.009Z,10.70
2019-03-31T21:38:44.592Z,10.90
2019-03-31T21:41:14.284Z,10.70
2019-03-31T21:43:43.029Z,10.50
2019-03-31T21:46:11.591Z,10.30
2019-03-31T21:48:40.169Z,10.60
2019-03-31T21:51:08.729Z,10.70
2019-03-31T21:53:37.317Z,11.00
2019-03-31T21:56:05.863Z,10.30
2019-03-31T21:58:34.441Z,10.50
2019-03-31T22:01:03.057Z,10.50
2019-03-31T22:03:31.638Z,10.40
2019-03-31T22:06:00.194Z,10.40
2019-03-31T22:08:28.776Z,10.00
2019-03-31T22:10:57.325Z,10.40
2019-03-31T22:13:25.911Z,9.80
2019-03-31T22:15:54.458Z,9.90
2019-03-31T22:18:23.513Z,9.90
2019-03-31T22:20:52.053Z,9.90
2019-03-31T22:23:20.633Z,9.90
2019-03-31T22:25:49.188Z,10.00
2019-03-31T22:28:17.765Z,9.60
2019-03-31T22:30:46.309Z,10.00
2019-03-31T22:33:14.861Z,10.30
2019-03-31T22:35:45.081Z,9.70
2019-03-31T22:38:13.642Z,9.60
2019-03-31T22:40:42.223Z,9.50
2019-03-31T22:43:10.765Z,9.30
2019-03-31T22:45:39.341Z,9.40
2019-03-31T22:48:07.892Z,9.30
2019-03-31T22:50:36.471Z,9.60
2019-03-31T22:53:05.019Z,9.50
2019-03-31T22:55:33.601Z,9.40
2019-03-31T22:58:02.159Z,9.10
2019-03-31T23:00:30.798Z,9.50
2019-03-31T23:02:59.358Z,9.50
2019-03-31T23:05:27.929Z,9.40
2019-03-31T23:07:56.475Z,9.00
2019-03-31T23:10:25.053Z,9.10
2019-03-31T23:12:53.600Z,9.00
2019-03-31T23:15:22.249Z,9.10
2019-03-31T23:17:50.803Z,9.00
2019-03-31T23:22:47.662Z,8.60
2019-03-31T23:25:16.243Z,8.90
2019-03-31T23:27:44.797Z,9.30
2019-03-31T23:30:13.851Z,9.00
2019-03-31T23:32:42.392Z,8.70
2019-03-31T23:35:11.046Z,8.50
2019-03-31T23:37:39.598Z,8.50
2019-03-31T23:42:36.537Z,8.80
2019-03-31T23:45:06.325Z,8.90
2019-03-31T23:47:34.879Z,8.60
2019-03-31T23:50:03.595Z,8.80
2019-03-31T23:52:32.146Z,9.20
2019-03-31T23:55:00.713Z,8.30
